Terminal Aerodrome Forecast
Issued by NWS

Home | Current Version | Previous Version | Graphics & Text | Print | Product List | Glossary On
Versions: 1 2 3 4 5 6 7 8 9 10 11 12 13 14 15 16
970
FTUS43 KMPX 201724
TAFRWF
TAF
KRWF 201724Z 2018/2118 14007KT P6SM SCT200
     FM210200 12004KT P6SM SCT050 BKN110=

USA.gov is the U.S. government's official web portal to all federal, state and local government web resources and services.